sensor_id;sensor_type;location;lat;lon;timestamp;pressure;altitude;pressure_sealevel;temperature;humidity
11212;BME280;5663;50.864;12.096;2023-02-03T00:01:35;100062.47;;;4.83;75.04
11212;BME280;5663;50.864;12.096;2023-02-03T00:04:03;100059.88;;;4.81;74.75
11212;BME280;5663;50.864;12.096;2023-02-03T00:06:31;100056.41;;;4.84;74.91
11212;BME280;5663;50.864;12.096;2023-02-03T00:09:00;100043.50;;;4.87;74.98
11212;BME280;5663;50.864;12.096;2023-02-03T00:11:29;99994.91;;;4.64;75.20
11212;BME280;5663;50.864;12.096;2023-02-03T00:13:57;100038.22;;;4.93;75.33
11212;BME280;5663;50.864;12.096;2023-02-03T00:16:25;100034.75;;;4.96;75.04
11212;BME280;5663;50.864;12.096;2023-02-03T00:18:52;100035.56;;;4.98;75.09
11212;BME280;5663;50.864;12.096;2023-02-03T00:21:20;100026.94;;;4.99;74.94
11212;BME280;5663;50.864;12.096;2023-02-03T00:23:47;100021.72;;;5.02;75.24
11212;BME280;5663;50.864;12.096;2023-02-03T00:26:17;100019.16;;;5.03;75.37
11212;BME280;5663;50.864;12.096;2023-02-03T00:28:45;100012.22;;;5.07;75.15
11212;BME280;5663;50.864;12.096;2023-02-03T00:31:16;100005.31;;;5.07;75.27
11212;BME280;5663;50.864;12.096;2023-02-03T00:33:44;100001.81;;;5.10;75.33
11212;BME280;5663;50.864;12.096;2023-02-03T00:36:12;99934.69;;;4.71;75.46
11212;BME280;5663;50.864;12.096;2023-02-03T00:38:40;99986.31;;;5.13;75.34
11212;BME280;5663;50.864;12.096;2023-02-03T00:41:07;99990.56;;;5.14;75.42
11212;BME280;5663;50.864;12.096;2023-02-03T00:43:36;99989.72;;;5.13;75.75
11212;BME280;5663;50.864;12.096;2023-02-03T00:46:04;99983.72;;;5.13;75.41
11212;BME280;5663;50.864;12.096;2023-02-03T00:48:33;99977.69;;;5.15;75.43
11212;BME280;5663;50.864;12.096;2023-02-03T00:51:01;99980.22;;;5.17;75.68
11212;BME280;5663;50.864;12.096;2023-02-03T00:53:28;99981.84;;;5.21;75.82
11212;BME280;5663;50.864;12.096;2023-02-03T00:55:56;99976.66;;;5.24;75.91
11212;BME280;5663;50.864;12.096;2023-02-03T00:58:24;99969.72;;;5.26;75.94
11212;BME280;5663;50.864;12.096;2023-02-03T01:00:54;99968.84;;;5.27;75.88
11212;BME280;5663;50.864;12.096;2023-02-03T01:03:23;99961.94;;;5.29;75.68
11212;BME280;5663;50.864;12.096;2023-02-03T01:05:50;99952.44;;;5.31;75.82
11212;BME280;5663;50.864;12.096;2023-02-03T01:08:18;99950.66;;;5.33;76.01
11212;BME280;5663;50.864;12.096;2023-02-03T01:10:45;99927.59;;;5.26;75.90
11212;BME280;5663;50.864;12.096;2023-02-03T01:13:13;99940.25;;;5.38;76.03
11212;BME280;5663;50.864;12.096;2023-02-03T01:15:45;99934.19;;;5.40;75.84
11212;BME280;5663;50.864;12.096;2023-02-03T01:18:14;99922.97;;;5.41;75.96
11212;BME280;5663;50.864;12.096;2023-02-03T01:20:42;99934.94;;;5.46;76.03
11212;BME280;5663;50.864;12.096;2023-02-03T01:23:09;99921.13;;;5.48;76.23
11212;BME280;5663;50.864;12.096;2023-02-03T01:25:37;99921.09;;;5.50;76.06
11212;BME280;5663;50.864;12.096;2023-02-03T01:28:04;99935.63;;;5.54;76.07
11212;BME280;5663;50.864;12.096;2023-02-03T01:30:32;99927.03;;;5.55;76.14
11212;BME280;5663;50.864;12.096;2023-02-03T01:32:59;99916.66;;;5.56;76.19
11212;BME280;5663;50.864;12.096;2023-02-03T01:35:28;99923.50;;;5.57;76.31
11212;BME280;5663;50.864;12.096;2023-02-03T01:37:56;99911.44;;;5.59;76.73
11212;BME280;5663;50.864;12.096;2023-02-03T01:40:41;99908.75;;;5.64;76.94
11212;BME280;5663;50.864;12.096;2023-02-03T01:43:09;99866.13;;;5.48;76.65
11212;BME280;5663;50.864;12.096;2023-02-03T01:45:38;99896.59;;;5.69;77.14
11212;BME280;5663;50.864;12.096;2023-02-03T01:48:07;99891.31;;;5.75;77.37
11212;BME280;5663;50.864;12.096;2023-02-03T01:50:37;99898.09;;;5.79;77.59
11212;BME280;5663;50.864;12.096;2023-02-03T01:53:09;99898.81;;;5.84;77.46
11212;BME280;5663;50.864;12.096;2023-02-03T01:55:41;99887.53;;;5.88;77.65
11212;BME280;5663;50.864;12.096;2023-02-03T01:58:12;99890.91;;;5.93;77.72
11212;BME280;5663;50.864;12.096;2023-02-03T02:00:42;99890.81;;;5.97;77.56
11212;BME280;5663;50.864;12.096;2023-02-03T02:03:10;99886.41;;;6.02;77.85
11212;BME280;5663;50.864;12.096;2023-02-03T02:05:42;99864.28;;;5.90;78.03
11212;BME280;5663;50.864;12.096;2023-02-03T02:08:13;99899.09;;;6.11;77.98
11212;BME280;5663;50.864;12.096;2023-02-03T02:10:43;99880.13;;;6.12;78.05
11212;BME280;5663;50.864;12.096;2023-02-03T02:13:12;99878.28;;;6.17;77.87
11212;BME280;5663;50.864;12.096;2023-02-03T02:15:48;99868.78;;;6.19;78.39
11212;BME280;5663;50.864;12.096;2023-02-03T02:18:23;99878.16;;;6.23;78.42
11212;BME280;5663;50.864;12.096;2023-02-03T02:21:15;99864.34;;;6.24;78.33
11212;BME280;5663;50.864;12.096;2023-02-03T02:27:01;99866.75;;;6.30;78.44
11212;BME280;5663;50.864;12.096;2023-02-03T02:30:02;99868.41;;;6.34;78.60
11212;BME280;5663;50.864;12.096;2023-02-03T02:33:00;99864.03;;;6.36;78.66
11212;BME280;5663;50.864;12.096;2023-02-03T02:38:24;99855.31;;;6.40;79.04
11212;BME280;5663;50.864;12.096;2023-02-03T02:41:02;99838.03;;;6.43;78.90
11212;BME280;5663;50.864;12.096;2023-02-03T02:43:39;99851.69;;;6.46;78.85
11212;BME280;5663;50.864;12.096;2023-02-03T02:46:10;99855.06;;;6.50;78.96
11212;BME280;5663;50.864;12.096;2023-02-03T02:48:43;99848.13;;;6.52;79.17
11212;BME280;5663;50.864;12.096;2023-02-03T02:51:15;99829.41;;;6.44;79.40
11212;BME280;5663;50.864;12.096;2023-02-03T02:53:46;99842.78;;;6.58;79.42
11212;BME280;5663;50.864;12.096;2023-02-03T02:56:17;99838.44;;;6.60;79.64
11212;BME280;5663;50.864;12.096;2023-02-03T02:58:48;99824.59;;;6.62;79.64
11212;BME280;5663;50.864;12.096;2023-02-03T03:01:16;99835.66;;;6.66;79.81
11212;BME280;5663;50.864;12.096;2023-02-03T03:03:46;99842.56;;;6.67;79.84
11212;BME280;5663;50.864;12.096;2023-02-03T03:06:18;99853.59;;;6.72;79.72
11212;BME280;5663;50.864;12.096;2023-02-03T03:08:52;99831.13;;;6.74;79.84
11212;BME280;5663;50.864;12.096;2023-02-03T03:11:24;99843.09;;;6.78;80.19
11212;BME280;5663;50.864;12.096;2023-02-03T03:13:54;99841.25;;;6.82;79.84
11212;BME280;5663;50.864;12.096;2023-02-03T03:16:24;99837.75;;;6.84;79.84
11212;BME280;5663;50.864;12.096;2023-02-03T03:18:57;99848.91;;;6.86;80.24
11212;BME280;5663;50.864;12.096;2023-02-03T03:21:31;99833.41;;;6.86;80.50
11212;BME280;5663;50.864;12.096;2023-02-03T03:24:04;99835.00;;;6.90;80.20
11212;BME280;5663;50.864;12.096;2023-02-03T03:26:40;99821.19;;;6.91;80.02
11212;BME280;5663;50.864;12.096;2023-02-03T03:29:11;99829.72;;;6.94;80.33
11212;BME280;5663;50.864;12.096;2023-02-03T03:31:40;99816.78;;;6.94;80.54
11212;BME280;5663;50.864;12.096;2023-02-03T03:34:10;99818.41;;;6.98;80.55
11212;BME280;5663;50.864;12.096;2023-02-03T03:36:41;99812.25;;;7.02;80.26
11212;BME280;5663;50.864;12.096;2023-02-03T03:39:14;99820.81;;;7.04;80.56
11212;BME280;5663;50.864;12.096;2023-02-03T03:41:56;99815.66;;;7.04;80.35
11212;BME280;5663;50.864;12.096;2023-02-03T03:44:29;99766.50;;;6.74;80.30
11212;BME280;5663;50.864;12.096;2023-02-03T05:50:30;99713.22;;;7.79;79.88
11212;BME280;5663;50.864;12.096;2023-02-03T05:52:58;99721.75;;;7.81;80.11
11212;BME280;5663;50.864;12.096;2023-02-03T05:55:27;99717.53;;;7.79;80.21
11212;BME280;5663;50.864;12.096;2023-02-03T05:57:55;99671.03;;;7.51;80.31
11212;BME280;5663;50.864;12.096;2023-02-03T06:00:23;99710.41;;;7.85;79.79
11212;BME280;5663;50.864;12.096;2023-02-03T06:02:51;99704.44;;;7.83;80.05
11212;BME280;5663;50.864;12.096;2023-02-03T06:05:19;99712.16;;;7.85;80.33
11212;BME280;5663;50.864;12.096;2023-02-03T06:07:49;99706.13;;;7.84;80.21
11212;BME280;5663;50.864;12.096;2023-02-03T06:10:16;99702.63;;;7.85;80.50
11212;BME280;5663;50.864;12.096;2023-02-03T06:12:45;99702.69;;;7.84;80.15
11212;BME280;5663;50.864;12.096;2023-02-03T06:15:13;99692.28;;;7.85;80.24
11212;BME280;5663;50.864;12.096;2023-02-03T06:17:43;99699.03;;;7.89;79.81
11212;BME280;5663;50.864;12.096;2023-02-03T06:20:12;99695.72;;;7.86;80.17
11212;BME280;5663;50.864;12.096;2023-02-03T06:22:40;99658.47;;;7.65;79.77
11212;BME280;5663;50.864;12.096;2023-02-03T06:25:10;99700.75;;;7.90;79.97
11212;BME280;5663;50.864;12.096;2023-02-03T06:27:39;99692.84;;;7.94;79.79
11212;BME280;5663;50.864;12.096;2023-02-03T06:30:08;99682.50;;;7.94;79.69
11212;BME280;5663;50.864;12.096;2023-02-03T06:32:36;99683.28;;;7.96;79.34
11212;BME280;5663;50.864;12.096;2023-02-03T06:35:04;99680.72;;;7.96;79.47
11212;BME280;5663;50.864;12.096;2023-02-03T06:37:32;99665.94;;;7.98;79.28
11212;BME280;5663;50.864;12.096;2023-02-03T06:40:00;99670.19;;;8.00;78.98
11212;BME280;5663;50.864;12.096;2023-02-03T06:42:31;99668.44;;;8.01;78.89
11212;BME280;5663;50.864;12.096;2023-02-03T06:44:59;99665.75;;;8.04;78.91
11212;BME280;5663;50.864;12.096;2023-02-03T06:47:26;99667.41;;;8.05;79.01
11212;BME280;5663;50.864;12.096;2023-02-03T10:50:48;99383.72;;;9.75;72.26
11212;BME280;5663;50.864;12.096;2023-02-03T10:53:24;99372.50;;;9.75;72.21
11212;BME280;5663;50.864;12.096;2023-02-03T10:56:00;99363.41;;;9.66;72.51
11212;BME280;5663;50.864;12.096;2023-02-03T10:58:30;99356.31;;;9.70;72.96
11212;BME280;5663;50.864;12.096;2023-02-03T11:01:05;99343.25;;;9.71;73.28
11212;BME280;5663;50.864;12.096;2023-02-03T11:03:33;99341.47;;;9.72;73.17
11212;BME280;5663;50.864;12.096;2023-02-03T11:06:08;99338.19;;;9.68;73.55
11212;BME280;5663;50.864;12.096;2023-02-03T11:08:38;99321.63;;;9.71;73.65
11212;BME280;5663;50.864;12.096;2023-02-03T11:11:07;99322.56;;;9.70;73.95
11212;BME280;5663;50.864;12.096;2023-02-03T11:13:36;99313.75;;;9.72;73.93
11212;BME280;5663;50.864;12.096;2023-02-03T11:16:05;99306.81;;;9.73;73.99
11212;BME280;5663;50.864;12.096;2023-02-03T11:18:40;99326.81;;;9.71;74.06
11212;BME280;5663;50.864;12.096;2023-02-03T11:21:13;99329.44;;;9.71;74.25
11212;BME280;5663;50.864;12.096;2023-02-03T11:23:45;99328.59;;;9.70;73.92
11212;BME280;5663;50.864;12.096;2023-02-03T11:26:18;99347.50;;;9.72;74.04
11212;BME280;5663;50.864;12.096;2023-02-03T11:28:49;99351.97;;;9.70;74.28
11212;BME280;5663;50.864;12.096;2023-02-03T11:31:20;99373.47;;;9.72;73.97
11212;BME280;5663;50.864;12.096;2023-02-03T11:33:53;99376.88;;;9.74;73.72
11212;BME280;5663;50.864;12.096;2023-02-03T11:36:27;99369.06;;;9.74;73.83
11212;BME280;5663;50.864;12.096;2023-02-03T11:39:19;99354.84;;;9.64;73.33
11212;BME280;5663;50.864;12.096;2023-02-03T11:41:47;99381.88;;;9.77;73.42
11212;BME280;5663;50.864;12.096;2023-02-03T11:44:19;99374.88;;;9.79;73.53
11212;BME280;5663;50.864;12.096;2023-02-03T11:46:49;99375.72;;;9.80;73.70
11212;BME280;5663;50.864;12.096;2023-02-03T11:49:44;99371.38;;;9.80;73.58
11212;BME280;5663;50.864;12.096;2023-02-03T11:55:19;99356.56;;;9.82;73.47
11212;BME280;5663;50.864;12.096;2023-02-03T11:57:57;99354.66;;;9.86;73.24
11212;BME280;5663;50.864;12.096;2023-02-03T12:00:35;99347.72;;;9.86;73.32
11212;BME280;5663;50.864;12.096;2023-02-03T12:03:34;99332.25;;;9.83;73.43
11212;BME280;5663;50.864;12.096;2023-02-03T12:06:20;99344.50;;;9.81;73.90
11212;BME280;5663;50.864;12.096;2023-02-03T12:09:17;99340.19;;;9.80;74.50
11212;BME280;5663;50.864;12.096;2023-02-03T12:12:03;99311.75;;;9.60;74.95
11212;BME280;5663;50.864;12.096;2023-02-03T12:14:46;99344.69;;;9.77;75.22
11212;BME280;5663;50.864;12.096;2023-02-03T12:17:29;99352.66;;;9.74;75.56
11212;BME280;5663;50.864;12.096;2023-02-03T12:20:11;99340.66;;;9.71;75.78
11212;BME280;5663;50.864;12.096;2023-02-03T12:22:53;99347.13;;;9.62;76.38
11212;BME280;5663;50.864;12.096;2023-02-03T12:25:34;99340.16;;;9.63;76.68
11212;BME280;5663;50.864;12.096;2023-02-03T12:28:12;99340.03;;;9.66;76.88
11212;BME280;5663;50.864;12.096;2023-02-03T12:30:48;99331.59;;;9.61;77.13
11212;BME280;5663;50.864;12.096;2023-02-03T12:33:19;99342.63;;;9.66;77.15
11212;BME280;5663;50.864;12.096;2023-02-03T12:35:49;99335.72;;;9.65;77.47
11212;BME280;5663;50.864;12.096;2023-02-03T12:38:26;99323.66;;;9.64;77.58
11212;BME280;5663;50.864;12.096;2023-02-03T12:40:59;99341.63;;;9.69;77.83
11212;BME280;5663;50.864;12.096;2023-02-03T12:43:33;99343.53;;;9.65;77.89
11212;BME280;5663;50.864;12.096;2023-02-03T12:46:08;99343.38;;;9.68;77.98
11212;BME280;5663;50.864;12.096;2023-02-03T12:48:45;99335.59;;;9.68;78.36
11212;BME280;5663;50.864;12.096;2023-02-03T12:51:23;99327.19;;;9.63;78.33
11212;BME280;5663;50.864;12.096;2023-02-03T12:53:57;99319.19;;;9.68;78.41
11212;BME280;5663;50.864;12.096;2023-02-03T12:56:35;99315.59;;;9.70;78.55
11212;BME280;5663;50.864;12.096;2023-02-03T12:59:08;99324.28;;;9.69;78.46
11212;BME280;5663;50.864;12.096;2023-02-03T13:01:47;99324.16;;;9.72;78.73
11212;BME280;5663;50.864;12.096;2023-02-03T13:04:25;99314.69;;;9.71;78.56
11212;BME280;5663;50.864;12.096;2023-02-03T13:07:03;99306.88;;;9.71;78.73
11212;BME280;5663;50.864;12.096;2023-02-03T13:09:38;99295.19;;;9.62;78.82
11212;BME280;5663;50.864;12.096;2023-02-03T13:12:12;99301.56;;;9.74;79.04
11212;BME280;5663;50.864;12.096;2023-02-03T13:14:44;99272.06;;;9.75;78.96
11212;BME280;5663;50.864;12.096;2023-02-03T13:17:17;99287.56;;;9.77;79.21
11212;BME280;5663;50.864;12.096;2023-02-03T13:19:48;99278.00;;;9.77;79.22
11212;BME280;5663;50.864;12.096;2023-02-03T13:22:19;99286.44;;;9.82;79.35
11212;BME280;5663;50.864;12.096;2023-02-03T13:24:52;99293.31;;;9.83;79.26
11212;BME280;5663;50.864;12.096;2023-02-03T13:27:38;99291.63;;;9.82;79.33
11212;BME280;5663;50.864;12.096;2023-02-03T13:30:29;99293.59;;;9.77;79.69
11212;BME280;5663;50.864;12.096;2023-02-03T13:36:20;99325.31;;;9.84;79.40
11212;BME280;5663;50.864;12.096;2023-02-03T13:42:06;99338.25;;;9.85;79.34
11212;BME280;5663;50.864;12.096;2023-02-03T13:44:38;99360.69;;;9.86;79.61
11212;BME280;5663;50.864;12.096;2023-02-03T13:47:15;99351.38;;;9.82;79.59
11212;BME280;5663;50.864;12.096;2023-02-03T13:49:48;99365.88;;;9.86;79.29
11212;BME280;5663;50.864;12.096;2023-02-03T15:00:40;99474.47;;;9.41;69.41
11212;BME280;5663;50.864;12.096;2023-02-03T15:28:13;99489.66;;;9.29;68.65
11212;BME280;5663;50.864;12.096;2023-02-03T15:30:46;99491.38;;;9.30;68.52
11212;BME280;5663;50.864;12.096;2023-02-03T15:33:17;99493.97;;;9.30;68.12
11212;BME280;5663;50.864;12.096;2023-02-03T15:35:51;99494.16;;;9.26;68.09
11212;BME280;5663;50.864;12.096;2023-02-03T15:38:25;99501.88;;;9.27;68.10
11212;BME280;5663;50.864;12.096;2023-02-03T15:40:55;99493.28;;;9.25;67.95
11212;BME280;5663;50.864;12.096;2023-02-03T15:43:29;99497.81;;;9.22;67.82
11212;BME280;5663;50.864;12.096;2023-02-03T15:46:03;99508.19;;;9.22;67.87
11212;BME280;5663;50.864;12.096;2023-02-03T15:48:36;99510.94;;;9.17;67.65
11212;BME280;5663;50.864;12.096;2023-02-03T15:51:10;99504.91;;;9.17;67.94
11212;BME280;5663;50.864;12.096;2023-02-03T15:53:45;99518.81;;;9.16;67.78
11212;BME280;5663;50.864;12.096;2023-02-03T15:56:20;99520.59;;;9.13;67.40
11212;BME280;5663;50.864;12.096;2023-02-03T15:58:50;99525.78;;;9.13;67.35
11212;BME280;5663;50.864;12.096;2023-02-03T16:01:20;99521.59;;;9.11;67.37
11212;BME280;5663;50.864;12.096;2023-02-03T16:03:51;99533.94;;;9.06;67.50
11212;BME280;5663;50.864;12.096;2023-02-03T16:06:23;99500.34;;;8.82;67.55
11212;BME280;5663;50.864;12.096;2023-02-03T16:08:53;99527.31;;;8.99;66.74
11212;BME280;5663;50.864;12.096;2023-02-03T16:11:27;99534.19;;;9.00;66.97
11212;BME280;5663;50.864;12.096;2023-02-03T16:13:58;99535.09;;;8.99;66.95
11212;BME280;5663;50.864;12.096;2023-02-03T16:16:29;99528.22;;;8.98;67.21
11212;BME280;5663;50.864;12.096;2023-02-03T16:18:58;99536.00;;;8.98;67.05
11212;BME280;5663;50.864;12.096;2023-02-03T16:21:31;99530.94;;;8.95;66.96
11212;BME280;5663;50.864;12.096;2023-02-03T16:24:01;99526.13;;;8.85;67.06
11212;BME280;5663;50.864;12.096;2023-02-03T16:26:30;99541.56;;;8.88;67.16
11212;BME280;5663;50.864;12.096;2023-02-03T16:29:15;99538.19;;;8.86;67.05
11212;BME280;5663;50.864;12.096;2023-02-03T16:32:00;99555.50;;;8.86;66.97
11212;BME280;5663;50.864;12.096;2023-02-03T16:34:45;99548.69;;;8.83;66.97
11212;BME280;5663;50.864;12.096;2023-02-03T16:37:31;99546.09;;;8.83;67.13
11212;BME280;5663;50.864;12.096;2023-02-03T16:40:20;99545.19;;;8.84;66.76
11212;BME280;5663;50.864;12.096;2023-02-03T16:43:09;99552.19;;;8.82;67.28
11212;BME280;5663;50.864;12.096;2023-02-03T16:45:59;99552.19;;;8.82;66.84
11212;BME280;5663;50.864;12.096;2023-02-03T16:48:45;99558.22;;;8.83;66.40
11212;BME280;5663;50.864;12.096;2023-02-03T16:51:36;99565.34;;;8.78;66.98
11212;BME280;5663;50.864;12.096;2023-02-03T16:54:06;99579.00;;;8.81;66.94
11212;BME280;5663;50.864;12.096;2023-02-03T17:58:17;99589.16;;;8.44;66.93
11212;BME280;5663;50.864;12.096;2023-02-03T18:00:45;99585.72;;;8.43;66.45
11212;BME280;5663;50.864;12.096;2023-02-03T18:03:13;99615.91;;;8.44;66.75
11212;BME280;5663;50.864;12.096;2023-02-03T18:05:49;99603.06;;;8.41;66.17
11212;BME280;5663;50.864;12.096;2023-02-03T18:08:17;99623.69;;;8.44;66.11
11212;BME280;5663;50.864;12.096;2023-02-03T18:10:45;99621.09;;;8.44;65.61
11212;BME280;5663;50.864;12.096;2023-02-03T18:13:13;99638.41;;;8.44;65.53
11212;BME280;5663;50.864;12.096;2023-02-03T18:15:42;99638.41;;;8.44;65.24
11212;BME280;5663;50.864;12.096;2023-02-03T18:18:10;99653.94;;;8.44;65.30
11212;BME280;5663;50.864;12.096;2023-02-03T18:20:38;99685.03;;;8.44;64.49
11212;BME280;5663;50.864;12.096;2023-02-03T18:23:07;99668.66;;;8.43;64.23
11212;BME280;5663;50.864;12.096;2023-02-03T18:25:37;99683.38;;;8.43;64.16
11212;BME280;5663;50.864;12.096;2023-02-03T18:28:05;99674.78;;;8.41;64.18
11212;BME280;5663;50.864;12.096;2023-02-03T18:30:35;99688.66;;;8.39;63.23
11212;BME280;5663;50.864;12.096;2023-02-03T18:33:05;99692.16;;;8.38;63.04
11212;BME280;5663;50.864;12.096;2023-02-03T18:35:35;99702.53;;;8.38;62.83
11212;BME280;5663;50.864;12.096;2023-02-03T18:38:04;99699.03;;;8.39;63.12
11212;BME280;5663;50.864;12.096;2023-02-03T18:40:34;99706.00;;;8.37;62.85
11212;BME280;5663;50.864;12.096;2023-02-03T18:43:04;99711.22;;;8.36;62.74
11212;BME280;5663;50.864;12.096;2023-02-03T18:45:37;99712.03;;;8.38;62.26
11212;BME280;5663;50.864;12.096;2023-02-03T18:48:08;99711.19;;;8.37;61.92
11212;BME280;5663;50.864;12.096;2023-02-03T18:50:40;99726.72;;;8.37;61.58
11212;BME280;5663;50.864;12.096;2023-02-03T18:53:09;99721.53;;;8.37;61.95
11212;BME280;5663;50.864;12.096;2023-02-03T18:55:40;99711.38;;;8.31;61.30
11212;BME280;5663;50.864;12.096;2023-02-03T18:58:11;99741.31;;;8.40;61.15
11212;BME280;5663;50.864;12.096;2023-02-03T19:00:40;99742.28;;;8.37;60.69
11212;BME280;5663;50.864;12.096;2023-02-03T19:03:12;99748.31;;;8.36;60.44
11212;BME280;5663;50.864;12.096;2023-02-03T19:05:42;99732.84;;;8.35;60.17
11212;BME280;5663;50.864;12.096;2023-02-03T19:08:12;99742.31;;;8.36;60.39
11212;BME280;5663;50.864;12.096;2023-02-03T19:10:42;99744.06;;;8.35;59.91
11212;BME280;5663;50.864;12.096;2023-02-03T19:13:12;99756.09;;;8.36;59.83
11212;BME280;5663;50.864;12.096;2023-02-03T19:15:43;99761.28;;;8.36;60.02
11212;BME280;5663;50.864;12.096;2023-02-03T19:18:16;99745.84;;;8.33;59.66
11212;BME280;5663;50.864;12.096;2023-02-03T19:20:45;99767.44;;;8.34;59.90
11212;BME280;5663;50.864;12.096;2023-02-03T19:23:14;99770.78;;;8.37;60.20
11212;BME280;5663;50.864;12.096;2023-02-03T19:25:46;99769.91;;;8.38;60.78
11212;BME280;5663;50.864;12.096;2023-02-03T19:28:18;99779.34;;;8.39;60.58
11212;BME280;5663;50.864;12.096;2023-02-03T19:30:48;99741.22;;;8.18;61.37
11212;BME280;5663;50.864;12.096;2023-02-03T19:33:17;99795.69;;;8.42;61.11
11212;BME280;5663;50.864;12.096;2023-02-03T19:35:46;99748.09;;;8.19;61.74
11212;BME280;5663;50.864;12.096;2023-02-03T19:38:18;99790.63;;;8.38;61.62
11212;BME280;5663;50.864;12.096;2023-02-03T19:40:45;99781.09;;;8.39;61.26
11212;BME280;5663;50.864;12.096;2023-02-03T19:43:13;99788.91;;;8.37;61.02
11212;BME280;5663;50.864;12.096;2023-02-03T19:45:40;99788.94;;;8.36;61.43
11212;BME280;5663;50.864;12.096;2023-02-03T19:48:08;99798.44;;;8.37;61.61
11212;BME280;5663;50.864;12.096;2023-02-03T19:50:38;99780.34;;;8.35;60.73
11212;BME280;5663;50.864;12.096;2023-02-03T19:53:11;99787.19;;;8.36;61.00
11212;BME280;5663;50.864;12.096;2023-02-03T19:55:40;99787.31;;;8.33;61.03
11212;BME280;5663;50.864;12.096;2023-02-03T19:58:09;99783.84;;;8.34;60.91
11212;BME280;5663;50.864;12.096;2023-02-03T20:00:36;99785.72;;;8.29;60.71
11212;BME280;5663;50.864;12.096;2023-02-03T20:03:04;99793.56;;;8.28;61.32
11212;BME280;5663;50.864;12.096;2023-02-03T20:05:32;99792.66;;;8.29;60.54
11212;BME280;5663;50.864;12.096;2023-02-03T20:08:03;99784.38;;;8.19;60.58
11212;BME280;5663;50.864;12.096;2023-02-03T20:10:30;99777.59;;;8.15;61.01
11212;BME280;5663;50.864;12.096;2023-02-03T20:12:58;99800.44;;;8.29;60.48
11212;BME280;5663;50.864;12.096;2023-02-03T20:15:26;99804.88;;;8.25;60.89
11212;BME280;5663;50.864;12.096;2023-02-03T20:17:55;99791.91;;;8.25;60.66
11212;BME280;5663;50.864;12.096;2023-02-03T20:20:22;99789.31;;;8.25;60.68
11212;BME280;5663;50.864;12.096;2023-02-03T20:22:50;99785.97;;;8.22;60.67
11212;BME280;5663;50.864;12.096;2023-02-03T20:25:19;99813.53;;;8.24;60.39
11212;BME280;5663;50.864;12.096;2023-02-03T20:27:47;99811.03;;;8.21;60.78
11212;BME280;5663;50.864;12.096;2023-02-03T20:30:15;99805.94;;;8.20;60.97
11212;BME280;5663;50.864;12.096;2023-02-03T20:32:42;99821.47;;;8.20;61.00
11212;BME280;5663;50.864;12.096;2023-02-03T20:35:10;99793.13;;;8.15;60.71
11212;BME280;5663;50.864;12.096;2023-02-03T20:37:38;99798.22;;;8.18;61.02
11212;BME280;5663;50.864;12.096;2023-02-03T20:40:11;99800.00;;;8.16;60.86
11212;BME280;5663;50.864;12.096;2023-02-03T20:42:42;99808.63;;;8.17;60.83
11212;BME280;5663;50.864;12.096;2023-02-03T20:45:12;99811.28;;;8.15;60.75
11212;BME280;5663;50.864;12.096;2023-02-03T20:47:40;99761.91;;;7.95;60.71
11212;BME280;5663;50.864;12.096;2023-02-03T20:50:12;99801.84;;;8.12;60.26
11212;BME280;5663;50.864;12.096;2023-02-03T20:52:40;99764.59;;;7.92;60.57
11212;BME280;5663;50.864;12.096;2023-02-03T20:55:11;99796.09;;;8.04;60.31
11212;BME280;5663;50.864;12.096;2023-02-03T20:57:39;99803.66;;;8.10;60.63
11212;BME280;5663;50.864;12.096;2023-02-03T21:58:58;99866.25;;;7.70;62.24
11212;BME280;5663;50.864;12.096;2023-02-03T22:01:26;99850.75;;;7.69;62.22
11212;BME280;5663;50.864;12.096;2023-02-03T22:03:59;99848.41;;;7.61;61.90
11212;BME280;5663;50.864;12.096;2023-02-03T22:06:37;99853.41;;;7.67;62.44
11212;BME280;5663;50.864;12.096;2023-02-03T22:09:10;99849.97;;;7.67;62.25
11212;BME280;5663;50.864;12.096;2023-02-03T22:11:38;99869.69;;;7.71;62.30
11212;BME280;5663;50.864;12.096;2023-02-03T22:14:08;99860.19;;;7.71;62.41
11212;BME280;5663;50.864;12.096;2023-02-03T22:16:36;99765.59;;;7.06;61.81
11212;BME280;5663;50.864;12.096;2023-02-03T22:19:03;99859.59;;;7.61;62.24
11212;BME280;5663;50.864;12.096;2023-02-03T22:21:31;99890.41;;;7.71;61.60
11212;BME280;5663;50.864;12.096;2023-02-03T22:23:59;99884.38;;;7.70;62.26
11212;BME280;5663;50.864;12.096;2023-02-03T22:26:28;99874.28;;;7.61;61.99
11212;BME280;5663;50.864;12.096;2023-02-03T22:28:55;99887.75;;;7.72;61.97
11212;BME280;5663;50.864;12.096;2023-02-03T22:31:24;99888.66;;;7.71;62.30
11212;BME280;5663;50.864;12.096;2023-02-03T22:33:52;99892.84;;;7.75;61.46
11212;BME280;5663;50.864;12.096;2023-02-03T22:36:20;99890.41;;;7.71;61.89
11212;BME280;5663;50.864;12.096;2023-02-03T22:38:48;99873.81;;;7.48;61.94
11212;BME280;5663;50.864;12.096;2023-02-03T22:41:16;99921.25;;;7.77;61.78
11212;BME280;5663;50.864;12.096;2023-02-03T22:43:46;99916.94;;;7.77;62.22
11212;BME280;5663;50.864;12.096;2023-02-03T22:46:13;99915.25;;;7.76;61.89
11212;BME280;5663;50.864;12.096;2023-02-03T22:48:42;99930.84;;;7.75;62.66
11212;BME280;5663;50.864;12.096;2023-02-03T22:51:10;99937.75;;;7.74;62.99
11212;BME280;5663;50.864;12.096;2023-02-03T22:53:37;99920.88;;;7.61;62.41
11212;BME280;5663;50.864;12.096;2023-02-03T22:56:06;99934.34;;;7.72;62.98
11212;BME280;5663;50.864;12.096;2023-02-03T22:58:34;99945.63;;;7.70;63.12
11212;BME280;5663;50.864;12.096;2023-02-03T23:59:48;99980.69;;;6.88;68.88
